Time;durP1;ratioP1;P1;durP2;ratioP2;P2;SDS_P1;SDS_P2;PMS_P1;PMS_P2;Temp;Humidity;BMP_temperature;BMP_pressure;BME280_temperature;BME280_humidity;BME280_pressure;Samples;Min_cycle;Max_cycle;Signal;HPM_P1;HPM_P2
2023/03/15 00:00:51;;;;;;;19.70;17.70;;;1.10;99.90;;;;;;6100161;23;20396;-74
2023/03/15 00:03:17;;;;;;;19.27;17.60;;;1.00;99.90;;;;;;6098181;23;20043;-73
2023/03/15 00:05:46;;;;;;;23.48;18.00;;;1.00;99.90;;;;;;6077894;23;20035;-76
2023/03/15 00:08:14;;;;;;;26.52;18.98;;;1.00;99.90;;;;;;6072329;23;20745;-77
2023/03/15 00:10:42;;;;;;;24.35;18.02;;;1.10;99.90;;;;;;6098533;23;20115;-76
2023/03/15 00:13:08;;;;;;;20.10;18.17;;;1.00;99.90;;;;;;6100150;23;20047;-76
2023/03/15 00:15:36;;;;;;;21.65;18.63;;;1.00;99.90;;;;;;6103249;23;20244;-73
2023/03/15 00:18:02;;;;;;;21.17;19.13;;;1.10;99.90;;;;;;6101719;23;20096;-75
2023/03/15 00:20:30;;;;;;;22.95;19.92;;;1.10;99.90;;;;;;6102681;23;20134;-73
2023/03/15 00:22:56;;;;;;;26.65;19.27;;;1.10;99.90;;;;;;6101432;23;20088;-76
2023/03/15 00:25:23;;;;;;;20.45;18.50;;;1.10;99.90;;;;;;6098368;23;20059;-76
2023/03/15 00:27:50;;;;;;;22.23;18.70;;;1.10;99.90;;;;;;6102168;23;20053;-76
2023/03/15 00:30:16;;;;;;;27.08;19.48;;;1.10;99.90;;;;;;6102032;23;20089;-73
2023/03/15 00:32:43;;;;;;;25.50;18.90;;;1.10;99.90;;;;;;6103092;23;20027;-73
2023/03/15 00:35:11;;;;;;;19.88;17.73;;;1.10;99.90;;;;;;6099834;23;20039;-73
2023/03/15 00:37:38;;;;;;;19.63;17.98;;;1.10;99.90;;;;;;6086046;23;20038;-74
2023/03/15 00:40:06;;;;;;;23.88;17.88;;;1.10;99.90;;;;;;6099600;23;20038;-76
2023/03/15 00:42:33;;;;;;;28.63;17.85;;;1.10;99.90;;;;;;6099982;23;20028;-75
2023/03/15 00:44:59;;;;;;;27.02;18.88;;;1.20;99.90;;;;;;6100323;23;20634;-76
2023/03/15 00:47:26;;;;;;;20.40;18.27;;;1.20;99.90;;;;;;6097308;23;20028;-76
2023/03/15 00:49:53;;;;;;;25.90;17.92;;;1.20;99.90;;;;;;6083473;23;20035;-76
2023/03/15 00:52:21;;;;;;;22.98;19.33;;;1.20;99.90;;;;;;6101074;23;20074;-73
2023/03/15 00:54:54;;;;;;;26.52;18.90;;;1.30;99.90;;;;;;6103685;23;20119;-73
2023/03/15 00:57:21;;;;;;;23.08;18.88;;;1.30;99.90;;;;;;6074287;23;20765;-77
2023/03/15 00:59:48;;;;;;;20.02;18.25;;;1.50;99.90;;;;;;6103778;23;20023;-76
2023/03/15 01:02:14;;;;;;;31.98;19.48;;;1.50;99.90;;;;;;6100625;23;20023;-76
2023/03/15 01:04:41;;;;;;;21.42;18.85;;;1.60;99.90;;;;;;6103558;23;20027;-76
2023/03/15 01:07:08;;;;;;;22.40;18.98;;;1.60;99.90;;;;;;6076389;23;20514;-76
2023/03/15 01:09:36;;;;;;;20.83;18.70;;;1.70;99.90;;;;;;6093206;23;20438;-76
2023/03/15 01:12:04;;;;;;;23.75;18.67;;;1.70;99.90;;;;;;6099813;23;20062;-76
2023/03/15 01:14:31;;;;;;;23.55;18.00;;;1.70;99.90;;;;;;6095480;23;20119;-76
2023/03/15 01:16:57;;;;;;;20.70;18.80;;;1.80;99.90;;;;;;6103486;23;20137;-75
2023/03/15 01:19:24;;;;;;;25.85;19.35;;;1.80;99.90;;;;;;6101598;23;20036;-75
2023/03/15 01:21:52;;;;;;;23.75;19.95;;;1.80;99.90;;;;;;6105549;23;20027;-75
2023/03/15 01:24:19;;;;;;;21.02;18.88;;;1.90;99.90;;;;;;6100209;23;20024;-76
2023/03/15 01:26:47;;;;;;;21.45;19.13;;;1.90;99.90;;;;;;6103115;23;20032;-76
2023/03/15 01:29:16;;;;;;;28.13;18.75;;;1.90;99.90;;;;;;6101201;23;20032;-76
2023/03/15 01:31:43;;;;;;;19.98;18.02;;;2.00;99.90;;;;;;6104144;23;20083;-76
2023/03/15 01:34:10;;;;;;;19.77;17.63;;;2.00;99.90;;;;;;6100848;23;20057;-76
2023/03/15 01:36:36;;;;;;;19.08;16.40;;;1.90;99.90;;;;;;6102643;23;20034;-76
2023/03/15 01:39:03;;;;;;;16.05;14.50;;;1.80;99.90;;;;;;6077281;23;20056;-76
2023/03/15 01:41:39;;;;;;;14.90;12.00;;;1.80;99.90;;;;;;6094644;23;20049;-75
2023/03/15 01:44:11;;;;;;;23.17;10.73;;;1.70;99.90;;;;;;6102357;23;20294;-76
2023/03/15 01:46:37;;;;;;;17.13;8.82;;;1.50;99.90;;;;;;6095387;23;20048;-76
2023/03/15 01:49:16;;;;;;;14.80;6.50;;;1.40;99.90;;;;;;6102229;23;20040;-76
2023/03/15 01:51:49;;;;;;;11.45;5.57;;;1.20;99.90;;;;;;6101198;23;20063;-77
2023/03/15 01:54:35;;;;;;;17.80;4.85;;;1.00;99.90;;;;;;6100178;23;20032;-76
2023/03/15 01:57:22;;;;;;;;;;;0.90;99.90;;;;;;6076560;23;20036;-76
2023/03/15 02:00:06;;;;;;;20.67;4.57;;;0.90;99.90;;;;;;6096838;23;19980;-76
2023/03/15 02:02:45;;;;;;;26.42;5.30;;;0.80;99.90;;;;;;6096628;23;20028;-76
2023/03/15 02:05:22;;;;;;;25.67;5.65;;;0.80;99.90;;;;;;6100369;23;20320;-77
2023/03/15 02:07:49;;;;;;;25.20;7.93;;;0.70;99.90;;;;;;6103652;23;20024;-76
2023/03/15 02:10:26;;;;;;;20.48;6.25;;;0.70;99.90;;;;;;6074805;23;20036;-74
2023/03/15 02:12:55;;;;;;;26.50;9.32;;;0.70;99.90;;;;;;6078098;23;20741;-74
2023/03/15 02:15:22;;;;;;;25.45;9.70;;;0.70;99.90;;;;;;6100117;23;20063;-74
2023/03/15 02:17:49;;;;;;;25.52;8.50;;;0.70;99.90;;;;;;6105990;23;20320;-74
2023/03/15 02:20:26;;;;;;;17.63;7.80;;;0.70;99.90;;;;;;6099441;23;20032;-74
2023/03/15 02:22:59;;;;;;;32.88;9.60;;;0.70;99.90;;;;;;6102696;23;20047;-74
2023/03/15 02:25:53;;;;;;;20.30;8.60;;;0.70;99.90;;;;;;6122416;23;20032;-73
2023/03/15 02:28:21;;;;;;;15.20;6.55;;;0.70;99.90;;;;;;6103386;23;20074;-74
2023/03/15 02:30:48;;;;;;;17.33;6.30;;;0.70;99.90;;;;;;6108755;23;20500;-74
2023/03/15 02:33:24;;;;;;;14.20;6.25;;;0.70;99.90;;;;;;6102587;23;20420;-74
2023/03/15 02:35:52;;;;;;;9.07;5.38;;;0.60;99.90;;;;;;6076965;23;20028;-74
2023/03/15 02:38:21;;;;;;;13.18;6.65;;;0.60;99.90;;;;;;6103123;23;20028;-74
2023/03/15 02:40:50;;;;;;;18.75;7.10;;;0.60;99.90;;;;;;6103612;23;20035;-74
2023/03/15 02:43:21;;;;;;;13.98;6.97;;;0.70;99.90;;;;;;6100995;23;20031;-74
2023/03/15 02:45:48;;;;;;;75.13;10.85;;;0.70;99.90;;;;;;6099494;23;20475;-74
2023/03/15 02:48:16;;;;;;;13.90;5.88;;;0.80;99.90;;;;;;6101342;23;20028;-74
2023/03/15 02:50:43;;;;;;;12.35;7.25;;;0.80;99.90;;;;;;6098026;23;20045;-74
2023/03/15 02:53:11;;;;;;;14.65;7.82;;;0.80;99.90;;;;;;6099672;23;20043;-76
2023/03/15 02:55:38;;;;;;;15.38;8.32;;;0.90;99.90;;;;;;6102614;23;20115;-76
2023/03/15 02:58:05;;;;;;;20.20;8.80;;;0.80;99.90;;;;;;6101444;23;20122;-77
2023/03/15 03:00:32;;;;;;;21.65;10.25;;;0.80;99.90;;;;;;6076023;23;20097;-76
2023/03/15 03:02:58;;;;;;;19.30;9.18;;;0.80;99.90;;;;;;6101621;23;20038;-74
2023/03/15 03:05:26;;;;;;;30.38;12.63;;;0.80;99.90;;;;;;6100378;23;20069;-74
2023/03/15 03:07:52;;;;;;;24.65;10.60;;;0.80;99.90;;;;;;6102667;23;20251;-74
2023/03/15 03:10:20;;;;;;;26.25;12.85;;;0.80;99.90;;;;;;6100612;23;20397;-74
2023/03/15 03:12:52;;;;;;;26.13;13.02;;;0.90;99.90;;;;;;6096943;23;20113;-75
2023/03/15 03:15:24;;;;;;;26.92;13.27;;;0.90;99.90;;;;;;6098167;23;20058;-76
2023/03/15 03:17:53;;;;;;;24.83;12.63;;;0.90;99.90;;;;;;6105318;23;20547;-74
2023/03/15 03:20:22;;;;;;;31.25;13.88;;;0.90;99.90;;;;;;6099510;23;20397;-74
2023/03/15 03:22:48;;;;;;;34.70;15.35;;;0.80;99.90;;;;;;6102762;23;20513;-74
2023/03/15 03:25:16;;;;;;;35.45;17.05;;;0.80;99.90;;;;;;6076829;23;20040;-74
2023/03/15 03:27:45;;;;;;;49.70;20.48;;;0.80;99.90;;;;;;6102729;23;20028;-74
2023/03/15 03:30:13;;;;;;;47.35;19.42;;;0.90;99.90;;;;;;6099166;23;20098;-75
2023/03/15 03:32:46;;;;;;;48.28;20.52;;;0.90;99.90;;;;;;6103827;23;20031;-77
2023/03/15 03:35:13;;;;;;;50.92;23.13;;;1.00;99.90;;;;;;6083905;23;20069;-77
2023/03/15 03:37:42;;;;;;;54.88;24.90;;;1.00;99.90;;;;;;6103261;23;20023;-77
2023/03/15 03:40:16;;;;;;;54.28;23.50;;;0.90;99.90;;;;;;6074122;23;20089;-76
2023/03/15 03:42:43;;;;;;;66.88;27.92;;;1.00;99.90;;;;;;6102633;23;20058;-76
2023/03/15 03:45:16;;;;;;;62.22;25.65;;;1.00;99.90;;;;;;6102426;23;20051;-76
2023/03/15 03:47:45;;;;;;;74.22;30.92;;;1.00;99.90;;;;;;6102495;23;20035;-76
2023/03/15 03:50:12;;;;;;;87.40;33.20;;;0.90;99.90;;;;;;6085686;23;20035;-76
2023/03/15 03:52:42;;;;;;;88.85;33.15;;;0.90;99.90;;;;;;6082793;23;20035;-78
2023/03/15 03:55:13;;;;;;;75.88;32.80;;;0.90;99.90;;;;;;6103707;23;20393;-79
2023/03/15 03:57:42;;;;;;;67.70;31.02;;;0.90;99.90;;;;;;6097852;23;20027;-78
2023/03/15 04:00:14;;;;;;;81.70;34.10;;;0.90;99.90;;;;;;6106937;23;20039;-78
2023/03/15 04:02:42;;;;;;;85.05;35.45;;;0.90;99.90;;;;;;6106352;23;20042;-78
2023/03/15 04:05:11;;;;;;;85.15;36.35;;;0.90;99.90;;;;;;6102843;23;20059;-78
2023/03/15 04:07:38;;;;;;;76.40;32.25;;;0.90;99.90;;;;;;6104901;23;20517;-77
2023/03/15 04:10:06;;;;;;;81.60;34.33;;;0.90;99.90;;;;;;6107419;23;20070;-78
2023/03/15 04:12:34;;;;;;;100.80;37.92;;;0.90;99.90;;;;;;6080201;23;20036;-78
2023/03/15 04:15:01;;;;;;;78.05;33.92;;;0.90;99.90;;;;;;6083803;23;20115;-79
2023/03/15 04:17:31;;;;;;;93.32;37.83;;;0.90;99.90;;;;;;6080098;23;20063;-78
2023/03/15 04:20:00;;;;;;;108.63;40.17;;;0.90;99.90;;;;;;6104411;23;20024;-80
2023/03/15 04:22:28;;;;;;;98.63;40.15;;;0.90;99.90;;;;;;6103388;23;20062;-79
2023/03/15 04:25:01;;;;;;;110.65;40.97;;;0.90;99.90;;;;;;6087895;23;20034;-78
2023/03/15 04:27:39;;;;;;;102.80;42.58;;;0.90;99.90;;;;;;6102530;23;20694;-78
2023/03/15 04:30:18;;;;;;;99.40;40.97;;;0.90;99.90;;;;;;6106246;23;20274;-75
2023/03/15 04:32:57;;;;;;;104.50;42.00;;;1.00;99.90;;;;;;6110188;23;20062;-75
2023/03/15 04:35:42;;;;;;;105.10;41.70;;;1.00;99.90;;;;;;6103664;23;20051;-73
2023/03/15 04:38:34;;;;;;;93.35;37.80;;;1.00;99.90;;;;;;6110037;23;20509;-76
2023/03/15 04:41:20;;;;;;;105.00;42.53;;;1.00;99.90;;;;;;6096787;23;20122;-75
2023/03/15 04:44:07;;;;;;;104.05;40.67;;;0.90;99.90;;;;;;6085295;23;20488;-74
2023/03/15 04:46:37;;;;;;;110.82;43.50;;;1.00;99.90;;;;;;6105950;23;20126;-77
2023/03/15 04:49:17;;;;;;;117.15;44.88;;;1.00;99.90;;;;;;6079623;23;20027;-76
2023/03/15 04:51:54;;;;;;;110.50;45.22;;;1.00;99.90;;;;;;6100056;23;20043;-73
2023/03/15 04:54:45;;;;;;;119.07;46.53;;;1.00;99.90;;;;;;6096000;23;20031;-77
2023/03/15 04:57:38;;;;;;;124.20;45.63;;;1.00;99.90;;;;;;6063293;23;20039;-76
2023/03/15 05:00:14;;;;;;;114.28;43.95;;;1.00;99.90;;;;;;6101721;23;20028;-78
2023/03/15 05:03:00;;;;;;;106.13;42.75;;;1.00;99.90;;;;;;6103543;23;20042;-76
2023/03/15 05:05:47;;;;;;;98.90;35.55;;;1.10;99.90;;;;;;6097089;23;20244;-77
2023/03/15 05:08:36;;;;;;;89.07;34.85;;;1.10;99.90;;;;;;6097404;23;20047;-75
2023/03/15 05:11:12;;;;;;;93.63;38.08;;;1.00;99.90;;;;;;6099131;23;20100;-74
2023/03/15 05:13:57;;;;;;;100.25;38.85;;;1.00;99.90;;;;;;6101735;23;20735;-75
2023/03/15 05:16:54;;;;;;;107.28;43.17;;;1.00;99.90;;;;;;6075846;23;20221;-74
2023/03/15 05:19:41;;;;;;;111.55;42.53;;;1.00;99.90;;;;;;6097119;23;20036;-75
2023/03/15 05:22:27;;;;;;;102.13;41.03;;;1.00;99.90;;;;;;6102939;23;20050;-76
2023/03/15 05:25:16;;;;;;;123.13;45.03;;;1.00;99.90;;;;;;6097592;23;20093;-76
2023/03/15 05:28:04;;;;;;;117.55;45.10;;;1.00;99.90;;;;;;6075308;23;20033;-77
2023/03/15 05:30:50;;;;;;;116.78;42.17;;;1.00;99.90;;;;;;6103099;23;20702;-75
2023/03/15 05:33:45;;;;;;;127.25;46.50;;;1.00;99.90;;;;;;6070914;23;20085;-79
2023/03/15 05:36:35;;;;;;;122.70;44.70;;;1.00;99.90;;;;;;6098273;23;20097;-76
2023/03/15 05:39:33;;;;;;;108.53;41.40;;;1.10;99.90;;;;;;6098709;23;20027;-76
2023/03/15 05:42:24;;;;;;;109.75;40.42;;;1.00;99.90;;;;;;6089828;23;20038;-76
2023/03/15 05:44:59;;;;;;;79.35;32.60;;;1.10;99.90;;;;;;6081079;23;20028;-76
2023/03/15 05:47:37;;;;;;;87.03;34.88;;;1.00;99.90;;;;;;6093642;23;20059;-75
2023/03/15 05:50:22;;;;;;;63.57;25.00;;;1.00;99.90;;;;;;6096936;23;20110;-77
2023/03/15 05:53:07;;;;;;;;;;;0.90;99.90;;;;;;6097953;23;20277;-75
2023/03/15 05:55:43;;;;;;;53.35;23.58;;;0.90;99.90;;;;;;6093563;23;19919;-78
2023/03/15 05:58:35;;;;;;;60.15;24.60;;;0.80;99.90;;;;;;6098111;23;20722;-76
2023/03/15 06:01:23;;;;;;;55.15;22.90;;;0.80;99.90;;;;;;6080144;23;20055;-76
2023/03/15 06:04:06;;;;;;;51.60;24.48;;;0.90;99.90;;;;;;6100735;23;20051;-76
2023/03/15 06:06:33;;;;;;;52.20;23.88;;;0.90;99.90;;;;;;6100487;23;20039;-77
2023/03/15 06:09:03;;;;;;;48.45;19.70;;;0.90;99.90;;;;;;6096621;23;20085;-75
2023/03/15 06:11:30;;;;;;;47.40;19.40;;;0.90;99.90;;;;;;6093912;23;20106;-78
2023/03/15 06:13:58;;;;;;;46.42;20.10;;;0.90;99.90;;;;;;6101498;23;20508;-78
2023/03/15 06:16:40;;;;;;;42.58;17.65;;;0.90;99.90;;;;;;6090439;23;20054;-77
2023/03/15 06:19:07;;;;;;;34.17;16.25;;;0.90;99.90;;;;;;6084061;23;20043;-77
2023/03/15 06:21:34;;;;;;;37.50;16.65;;;0.80;99.90;;;;;;6072837;23;20059;-75
2023/03/15 06:24:05;;;;;;;37.13;16.52;;;0.90;99.90;;;;;;6100703;23;20038;-76
2023/03/15 06:26:33;;;;;;;33.85;14.43;;;0.80;99.90;;;;;;6110317;23;20032;-78
2023/03/15 06:29:02;;;;;;;34.42;15.90;;;0.80;99.90;;;;;;6069707;23;20114;-77
2023/03/15 06:31:29;;;;;;;35.20;16.60;;;0.90;99.90;;;;;;6098834;23;20130;-77
2023/03/15 06:34:01;;;;;;;32.30;15.38;;;1.00;99.90;;;;;;6085224;23;20600;-76
2023/03/15 06:36:30;;;;;;;34.38;14.95;;;1.10;99.90;;;;;;6100598;23;20428;-75
2023/03/15 06:38:57;;;;;;;34.60;15.63;;;1.10;99.90;;;;;;6096897;23;20089;-75
2023/03/15 06:41:23;;;;;;;34.70;15.75;;;1.00;99.90;;;;;;6065902;23;21305;-77
2023/03/15 06:43:55;;;;;;;32.70;13.02;;;1.10;99.90;;;;;;6080448;23;20552;-75
2023/03/15 06:46:22;;;;;;;44.13;17.08;;;1.00;99.90;;;;;;6076062;23;20039;-76
2023/03/15 06:48:48;;;;;;;33.50;14.70;;;1.00;99.90;;;;;;6098741;23;20079;-76
2023/03/15 06:51:16;;;;;;;36.78;15.88;;;1.10;99.90;;;;;;6104015;23;20089;-76
2023/03/15 06:53:42;;;;;;;33.05;15.68;;;1.20;99.90;;;;;;6075187;23;20040;-76
2023/03/15 06:56:09;;;;;;;27.75;12.88;;;1.20;99.90;;;;;;6100513;23;20036;-75
2023/03/15 06:58:36;;;;;;;27.25;13.00;;;1.30;99.90;;;;;;6101232;23;20042;-77
2023/03/15 07:01:03;;;;;;;29.35;12.52;;;1.20;99.90;;;;;;6098599;23;20295;-78
2023/03/15 07:03:30;;;;;;;32.90;13.57;;;1.20;99.90;;;;;;6100641;23;20035;-76
2023/03/15 07:05:57;;;;;;;30.45;12.13;;;1.20;99.90;;;;;;6099090;23;20470;-78
2023/03/15 07:08:24;;;;;;;30.92;12.48;;;1.30;99.90;;;;;;6100884;23;20123;-76
2023/03/15 07:10:51;;;;;;;22.25;11.27;;;1.30;99.90;;;;;;6105693;23;20048;-77
2023/03/15 07:13:18;;;;;;;29.55;10.80;;;1.30;99.90;;;;;;6098311;23;20119;-76
2023/03/15 07:15:49;;;;;;;28.20;11.88;;;1.30;99.90;;;;;;6091776;23;20093;-77
2023/03/15 07:18:16;;;;;;;25.33;11.25;;;1.30;99.90;;;;;;6105059;23;20139;-77
2023/03/15 07:20:43;;;;;;;28.10;10.98;;;1.30;99.90;;;;;;6085444;23;20468;-76
2023/03/15 07:23:10;;;;;;;23.25;11.15;;;1.30;99.90;;;;;;6103042;23;20060;-76
2023/03/15 07:25:36;;;;;;;26.90;10.85;;;1.20;99.90;;;;;;6105105;23;20059;-77
2023/03/15 07:28:21;;;;;;;25.80;11.75;;;1.30;99.90;;;;;;6099097;23;20039;-75
2023/03/15 07:30:56;;;;;;;22.45;9.95;;;1.40;99.90;;;;;;6105858;23;20027;-77
2023/03/15 07:33:24;;;;;;;;;;;1.40;99.90;;;;;;6101408;23;20042;-76
2023/03/15 07:35:54;;;;;;;24.33;11.07;;;1.50;99.90;;;;;;6105047;23;19919;-76
2023/03/15 07:38:24;;;;;;;20.77;10.93;;;1.50;99.90;;;;;;6099600;23;20042;-76
2023/03/15 07:40:51;;;;;;;21.65;11.10;;;1.60;99.90;;;;;;6083608;23;20055;-77
2023/03/15 07:43:18;;;;;;;28.27;12.07;;;1.70;99.90;;;;;;6074446;23;20035;-75
2023/03/15 07:45:48;;;;;;;20.20;11.50;;;1.70;99.90;;;;;;6102186;23;20059;-75
2023/03/15 07:48:15;;;;;;;28.42;12.38;;;1.80;99.90;;;;;;6076911;23;20032;-75
2023/03/15 07:50:42;;;;;;;32.90;15.02;;;1.90;99.90;;;;;;6077013;23;20119;-77
2023/03/15 07:53:09;;;;;;;37.90;16.95;;;2.00;99.90;;;;;;6099037;23;20032;-76
2023/03/15 07:55:35;;;;;;;26.27;12.80;;;2.00;99.90;;;;;;6078102;23;20039;-75
2023/03/15 07:58:03;;;;;;;23.25;12.02;;;2.00;99.90;;;;;;6103200;23;20085;-76
2023/03/15 08:00:31;;;;;;;27.55;13.48;;;1.80;99.90;;;;;;6101843;23;20426;-78
2023/03/15 08:02:58;;;;;;;25.30;14.25;;;1.70;99.90;;;;;;6102411;23;20023;-75
2023/03/15 08:05:25;;;;;;;26.65;13.52;;;1.70;99.90;;;;;;6110519;23;20028;-77
2023/03/15 08:07:55;;;;;;;49.70;14.38;;;1.80;99.90;;;;;;6103482;23;20051;-78
2023/03/15 08:10:22;;;;;;;28.15;12.80;;;1.90;99.90;;;;;;6099139;23;20050;-78
2023/03/15 08:12:49;;;;;;;25.35;12.80;;;1.90;99.90;;;;;;6104076;23;20043;-77
2023/03/15 08:15:15;;;;;;;25.13;13.73;;;1.80;99.90;;;;;;6100171;23;20031;-78
2023/03/15 08:17:43;;;;;;;29.95;13.23;;;1.90;99.90;;;;;;6102445;23;20032;-79
2023/03/15 08:20:10;;;;;;;28.73;12.68;;;2.00;99.90;;;;;;6101452;23;20040;-78
2023/03/15 08:22:37;;;;;;;21.17;13.27;;;2.10;99.90;;;;;;6100352;23;20063;-77
2023/03/15 08:25:05;;;;;;;26.80;13.10;;;2.00;99.90;;;;;;6101736;23;20375;-79
2023/03/15 08:27:32;;;;;;;28.00;14.20;;;1.90;99.90;;;;;;6077399;23;20074;-79
2023/03/15 08:29:58;;;;;;;24.48;14.32;;;2.10;99.90;;;;;;6102213;23;20064;-78
2023/03/15 08:32:25;;;;;;;27.17;13.82;;;2.20;99.90;;;;;;6102461;23;20081;-79
2023/03/15 08:34:52;;;;;;;29.13;16.70;;;2.30;99.90;;;;;;6073189;23;20405;-79
2023/03/15 08:37:19;;;;;;;19.95;15.25;;;2.40;99.90;;;;;;6101413;23;20075;-78
2023/03/15 08:39:46;;;;;;;28.85;16.20;;;2.40;99.90;;;;;;6106140;23;20119;-79
2023/03/15 08:42:13;;;;;;;28.80;15.65;;;2.40;99.90;;;;;;6102123;23;20031;-79
2023/03/15 08:44:39;;;;;;;27.55;17.45;;;2.50;99.90;;;;;;6081835;23;20481;-79
2023/03/15 08:47:06;;;;;;;24.30;16.00;;;2.60;99.90;;;;;;6100983;23;20374;-81
2023/03/15 08:49:33;;;;;;;25.85;17.48;;;2.60;99.90;;;;;;6086667;23;20075;-79
2023/03/15 08:52:01;;;;;;;23.83;17.42;;;2.60;99.90;;;;;;6105238;23;20497;-83
2023/03/15 08:54:28;;;;;;;27.23;16.42;;;2.70;99.90;;;;;;6101150;23;20035;-80
2023/03/15 08:56:55;;;;;;;28.05;17.38;;;3.10;99.90;;;;;;6101204;23;20193;-81
2023/03/15 08:59:21;;;;;;;20.00;17.45;;;3.50;99.90;;;;;;6077094;23;20036;-79
2023/03/15 09:01:59;;;;;;;25.95;20.40;;;3.60;99.90;;;;;;6104616;23;20034;-80
2023/03/15 09:04:26;;;;;;;27.63;21.80;;;3.40;99.90;;;;;;6102191;23;20027;-78
2023/03/15 09:06:53;;;;;;;28.10;24.73;;;3.30;99.90;;;;;;6086918;23;20035;-79
2023/03/15 09:09:20;;;;;;;29.85;26.75;;;3.40;99.90;;;;;;6080612;23;20055;-78
2023/03/15 09:11:47;;;;;;;30.65;27.85;;;3.30;99.90;;;;;;6112217;23;20647;-78
2023/03/15 09:14:14;;;;;;;26.50;24.17;;;3.40;99.90;;;;;;6100135;23;20035;-77
2023/03/15 09:16:41;;;;;;;27.27;24.55;;;3.20;99.90;;;;;;6102712;23;20057;-78
2023/03/15 09:19:08;;;;;;;27.08;24.27;;;3.20;99.90;;;;;;6101653;23;20743;-77
2023/03/15 09:21:35;;;;;;;25.67;23.05;;;3.20;99.90;;;;;;6100459;23;20034;-78
2023/03/15 09:24:02;;;;;;;33.45;25.30;;;3.20;99.90;;;;;;6102399;23;20595;-78
2023/03/15 09:26:29;;;;;;;25.92;23.15;;;3.00;99.90;;;;;;6109630;23;20036;-77
2023/03/15 09:28:56;;;;;;;35.55;24.63;;;3.00;99.90;;;;;;6088330;23;20523;-77
2023/03/15 09:31:23;;;;;;;34.45;23.60;;;3.10;99.90;;;;;;6068762;23;20500;-76
2023/03/15 09:33:50;;;;;;;32.60;30.13;;;3.00;99.90;;;;;;6079268;23;20039;-78
2023/03/15 09:36:17;;;;;;;30.58;18.38;;;3.10;99.90;;;;;;6080142;23;20032;-77
2023/03/15 09:38:43;;;;;;;22.67;18.60;;;3.00;99.90;;;;;;6102950;23;20664;-78
2023/03/15 09:41:19;;;;;;;23.23;18.83;;;3.00;99.90;;;;;;6073522;23;20110;-78
2023/03/15 09:43:58;;;;;;;23.02;20.67;;;3.00;99.90;;;;;;6100220;23;20088;-78
2023/03/15 09:46:28;;;;;;;23.42;20.45;;;3.10;99.90;;;;;;6123809;23;20114;-78
2023/03/15 09:49:30;;;;;;;31.35;23.05;;;3.20;99.90;;;;;;6104211;23;20062;-79
2023/03/15 09:52:08;;;;;;;29.92;27.08;;;3.50;99.90;;;;;;6097858;23;20054;-77
2023/03/15 09:54:56;;;;;;;31.55;29.00;;;3.70;99.90;;;;;;6098463;23;20447;-78
2023/03/15 09:58:02;;;;;;;29.17;26.13;;;3.60;99.90;;;;;;6095932;23;20085;-77
2023/03/15 10:00:37;;;;;;;27.92;24.95;;;3.50;99.90;;;;;;5943178;23;20038;-77
2023/03/15 10:03:08;;;;;;;25.60;23.30;;;3.30;99.90;;;;;;6099698;23;20081;-77
2023/03/15 10:05:40;;;;;;;26.27;22.90;;;3.00;99.90;;;;;;6102070;23;20062;-77
2023/03/15 10:08:18;;;;;;;22.30;18.88;;;2.90;99.90;;;;;;6078294;23;20106;-77
2023/03/15 10:11:07;;;;;;;23.88;21.10;;;3.10;99.90;;;;;;6092642;23;20044;-77
2023/03/15 10:13:37;;;;;;;25.27;22.25;;;3.60;99.90;;;;;;6099965;23;20187;-77
2023/03/15 10:16:19;;;;;;;29.83;27.05;;;3.90;99.90;;;;;;6100465;23;20028;-76
2023/03/15 10:18:54;;;;;;;30.73;28.42;;;4.00;99.90;;;;;;6104141;23;20114;-76
2023/03/15 10:21:30;;;;;;;27.92;25.05;;;3.90;99.90;;;;;;6101259;23;20063;-76
2023/03/15 10:23:58;;;;;;;23.83;21.50;;;3.80;99.90;;;;;;6070450;23;20031;-76
2023/03/15 10:26:31;;;;;;;26.95;24.10;;;4.20;99.90;;;;;;6099575;23;20036;-76
2023/03/15 10:29:01;;;;;;;26.25;23.63;;;4.50;99.90;;;;;;6101948;23;20028;-75
2023/03/15 10:31:35;;;;;;;27.90;25.30;;;4.60;99.90;;;;;;6099404;23;20623;-76
2023/03/15 10:34:11;;;;;;;30.52;26.10;;;4.90;99.90;;;;;;6076869;23;20111;-75
2023/03/15 10:36:48;;;;;;;29.70;26.80;;;5.20;99.90;;;;;;6100885;23;20035;-77
2023/03/15 10:39:15;;;;;;;39.33;35.58;;;5.40;99.90;;;;;;6072864;23;20114;-77
2023/03/15 10:41:45;;;;;;;37.20;33.65;;;5.20;99.90;;;;;;6100249;23;20684;-76
2023/03/15 10:44:15;;;;;;;34.60;31.42;;;5.00;99.90;;;;;;6107594;23;20032;-77
2023/03/15 10:46:59;;;;;;;28.90;26.13;;;4.70;99.90;;;;;;6098887;23;20040;-79
2023/03/15 10:49:37;;;;;;;32.38;29.25;;;5.00;99.90;;;;;;6087782;23;20028;-75
2023/03/15 10:52:05;;;;;;;31.55;28.80;;;5.20;99.90;;;;;;6099187;23;20031;-75
2023/03/15 10:54:33;;;;;;;36.65;33.80;;;5.60;99.90;;;;;;6095396;23;20597;-77
2023/03/15 10:57:11;;;;;;;39.15;36.10;;;5.70;99.90;;;;;;6086580;23;20097;-77
2023/03/15 11:00:16;;;;;;;39.97;36.40;;;5.70;99.90;;;;;;6096561;23;20034;-78
2023/03/15 11:02:51;;;;;;;36.60;33.42;;;5.60;99.90;;;;;;6098203;23;20035;-77
2023/03/15 11:05:18;;;;;;;40.40;36.95;;;5.40;99.90;;;;;;6102359;23;20667;-75
2023/03/15 11:07:57;;;;;;;33.95;30.15;;;5.10;99.90;;;;;;6072706;23;20047;-75
2023/03/15 11:10:27;;;;;;;38.40;33.75;;;4.80;99.90;;;;;;6095989;23;20039;-75
2023/03/15 11:13:12;;;;;;;30.45;27.67;;;4.70;99.90;;;;;;6102087;23;20409;-74
2023/03/15 11:15:54;;;;;;;33.72;30.55;;;5.00;99.90;;;;;;6124360;23;20130;-75
2023/03/15 11:18:29;;;;;;;31.80;28.70;;;5.10;99.90;;;;;;6100127;23;20499;-77
2023/03/15 11:20:56;;;;;;;;;;;5.50;99.90;;;;;;6100164;23;20035;-79
2023/03/15 11:23:27;;;;;;;33.17;30.85;;;5.90;99.90;;;;;;6098095;23;19916;-79
2023/03/15 11:25:55;;;;;;;35.30;32.22;;;6.10;99.90;;;;;;6072508;23;20043;-77
2023/03/15 11:28:26;;;;;;;36.60;33.65;;;6.00;99.90;;;;;;6101434;23;20066;-77
2023/03/15 11:30:54;;;;;;;37.45;34.33;;;5.60;99.90;;;;;;6096653;23;20519;-76
2023/03/15 11:33:32;;;;;;;34.17;30.92;;;5.20;99.90;;;;;;6099113;23;20036;-77
2023/03/15 11:36:04;;;;;;;35.05;31.33;;;5.20;99.90;;;;;;6095426;23;20114;-78
2023/03/15 11:38:40;;;;;;;34.58;32.20;;;5.70;99.90;;;;;;6101936;23;20039;-78
2023/03/15 11:41:28;;;;;;;36.30;33.65;;;6.00;99.90;;;;;;6102088;23;20055;-77
2023/03/15 11:44:26;;;;;;;37.20;34.30;;;6.50;99.90;;;;;;6098967;23;20059;-78
2023/03/15 11:47:07;;;;;;;37.00;33.95;;;6.80;99.90;;;;;;6076745;23;20039;-77
2023/03/15 11:49:42;;;;;;;39.38;36.65;;;6.90;99.90;;;;;;6071187;23;20532;-79
2023/03/15 11:52:09;;;;;;;40.75;37.80;;;6.60;99.90;;;;;;6097609;23;20028;-77
2023/03/15 11:54:36;;;;;;;35.15;32.10;;;6.30;99.90;;;;;;6099610;23;20567;-77
2023/03/15 11:57:08;;;;;;;46.53;43.60;;;6.00;99.90;;;;;;6085525;23;20091;-78
2023/03/15 11:59:39;;;;;;;36.33;33.35;;;5.70;99.90;;;;;;6078197;23;20027;-77
2023/03/15 12:02:09;;;;;;;48.42;44.65;;;5.70;99.90;;;;;;6072412;23;20031;-76
2023/03/15 12:04:39;;;;;;;45.17;41.50;;;5.70;99.90;;;;;;6088048;23;20027;-77
2023/03/15 12:07:30;;;;;;;46.47;42.72;;;5.40;99.90;;;;;;6097598;23;20122;-76
2023/03/15 12:10:18;;;;;;;40.30;37.40;;;5.30;99.90;;;;;;6079341;23;20099;-76
2023/03/15 12:12:55;;;;;;;45.95;42.83;;;5.30;99.90;;;;;;6100624;23;20278;-74
2023/03/15 12:15:21;;;;;;;44.35;41.53;;;5.60;99.90;;;;;;6098613;23;20125;-77
2023/03/15 12:17:57;;;;;;;48.28;44.95;;;5.90;99.90;;;;;;6104723;23;20085;-77
2023/03/15 12:20:37;;;;;;;45.55;42.00;;;5.80;99.90;;;;;;6102936;23;20571;-78
2023/03/15 12:23:16;;;;;;;44.92;42.15;;;5.70;99.90;;;;;;6079132;23;20274;-79
2023/03/15 12:25:54;;;;;;;43.35;40.30;;;5.50;99.90;;;;;;6073434;23;20103;-75
2023/03/15 12:28:27;;;;;;;43.03;39.72;;;5.60;99.90;;;;;;6101059;23;20669;-78
2023/03/15 12:30:58;;;;;;;43.05;40.08;;;5.90;99.90;;;;;;6100997;23;20031;-77
2023/03/15 12:33:27;;;;;;;43.63;40.65;;;6.50;99.90;;;;;;6103883;23;20044;-78
2023/03/15 12:36:00;;;;;;;42.72;39.80;;;7.10;99.90;;;;;;6083472;23;20032;-78
2023/03/15 12:38:35;;;;;;;40.90;37.92;;;6.90;99.90;;;;;;6104508;23;20223;-79
2023/03/15 12:41:06;;;;;;;43.95;40.80;;;6.60;99.90;;;;;;6092591;23;20035;-78
2023/03/15 12:43:43;;;;;;;47.63;44.13;;;6.40;99.90;;;;;;6097196;23;20032;-75
2023/03/15 12:46:35;;;;;;;47.67;44.70;;;6.20;99.90;;;;;;6101390;23;20107;-75
2023/03/15 12:49:23;;;;;;;48.15;45.10;;;6.30;99.90;;;;;;6099269;23;20032;-77
2023/03/15 12:52:02;;;;;;;40.53;37.97;;;6.30;99.90;;;;;;6083504;23;20035;-75
2023/03/15 12:54:47;;;;;;;41.10;38.17;;;6.10;99.90;;;;;;6082867;23;20036;-75
2023/03/15 12:57:36;;;;;;;49.35;45.45;;;6.00;99.90;;;;;;6083548;23;20036;-76
2023/03/15 13:00:14;;;;;;;54.13;50.28;;;5.90;99.90;;;;;;6110588;23;20692;-76
2023/03/15 13:02:48;;;;;;;43.88;40.47;;;5.70;99.90;;;;;;6105341;23;20574;-76
2023/03/15 13:05:19;;;;;;;36.75;34.20;;;5.40;99.90;;;;;;6104892;23;20035;-78